Time;durP1;ratioP1;P1;durP2;ratioP2;P2;SDS_P1;SDS_P2;PMS_P1;PMS_P2;Temp;Humidity;BMP_temperature;BMP_pressure;BME280_temperature;BME280_humidity;BME280_pressure;Samples;Min_cycle;Max_cycle;Signal;HPM_P1;HPM_P2
2021/12/28 00:00:49;;;;;;;;;0.33;0.33;;;;;14.10;69.18;98747.94;2097845;27;48106;-56
2021/12/28 00:01:50;;;;;;;;;1.25;1.25;;;;;14.09;69.53;98739.09;2061410;27;47466;-56
2021/12/28 00:02:50;;;;;;;;;0.00;0.00;;;;;14.08;69.18;98732.03;2054845;28;46966;-55
2021/12/28 00:03:52;;;;;;;;;1.67;1.67;;;;;14.08;69.46;98737.38;2057453;28;48256;-56
2021/12/28 00:04:52;;;;;;;;;3.25;2.00;;;;;14.09;69.57;98736.41;2068691;27;48177;-56
2021/12/28 00:05:53;;;;;;;;;1.67;1.00;;;;;14.09;69.62;98724.88;2097537;27;47598;-55
2021/12/28 00:06:53;;;;;;;;;1.00;1.00;;;;;14.08;69.55;98718.69;2064525;28;47042;-54
2021/12/28 00:07:54;;;;;;;;;1.00;1.00;;;;;14.08;69.61;98724.03;2053869;28;48311;-54
2021/12/28 00:08:55;;;;;;;;;0.00;0.00;;;;;14.07;69.31;98726.81;2056261;27;48206;-56
2021/12/28 00:09:55;;;;;;;;;0.33;0.33;;;;;14.07;69.23;98726.81;2064824;28;48180;-55
2021/12/28 00:10:56;;;;;;;;;0.33;0.33;;;;;14.06;69.66;98723.28;2060550;27;46972;-55
2021/12/28 00:11:56;;;;;;;;;1.00;1.00;;;;;14.07;69.02;98719.66;2060307;28;47360;-56
2021/12/28 00:12:57;;;;;;;;;1.00;1.00;;;;;14.07;69.61;98716.16;2056648;28;47947;-56
2021/12/28 00:14:01;;;;;;;;;1.33;0.00;;;;;14.06;69.21;98720.63;2057640;27;47415;-55
2021/12/28 00:15:49;;;;;;;;;1.00;1.00;;;;;14.05;69.50;98708.25;2074909;28;45382;-53
2021/12/28 00:18:51;;;;;;;;;1.00;1.00;;;;;14.03;69.68;98696.84;2053960;28;47402;-54
2021/12/28 00:19:52;;;;;;;;;1.00;1.00;;;;;14.03;69.74;98702.16;2074257;28;47061;-55
2021/12/28 00:20:55;;;;;;;;;0.67;0.67;;;;;14.03;69.69;98699.50;2059093;27;48285;-56
2021/12/28 00:21:56;;;;;;;;;0.00;0.00;;;;;14.02;69.62;98692.47;2059045;28;48235;-55
2021/12/28 00:22:57;;;;;;;;;1.00;1.00;;;;;14.03;69.75;98686.16;2066902;28;48033;-56
2021/12/28 00:23:59;;;;;;;;;0.00;0.00;;;;;14.03;69.52;98690.66;2058047;27;48193;-56
2021/12/28 00:25:00;;;;;;;;;0.00;0.00;;;;;14.02;69.50;98694.28;2083438;28;47127;-55
2021/12/28 00:26:00;;;;;;;;;0.00;0.00;;;;;14.02;69.76;98695.13;2049181;28;46613;-53
2021/12/28 00:27:00;;;;;;;;;1.00;1.00;;;;;14.01;69.72;98690.75;2054952;28;47450;-57
2021/12/28 00:28:02;;;;;;;;;0.00;0.00;;;;;14.02;69.84;98689.78;2075221;27;46949;-56
2021/12/28 00:29:03;;;;;;;;;2.00;0.75;;;;;14.01;69.76;98693.44;2047007;28;47495;-56
2021/12/28 00:30:05;;;;;;;;;0.67;0.67;;;;;14.02;69.87;98694.28;2094306;27;47214;-57
2021/12/28 00:31:06;;;;;;;;;0.75;0.75;;;;;14.00;69.60;98680.19;2062627;28;47877;-57
2021/12/28 00:32:07;;;;;;;;;1.25;1.25;;;;;14.00;69.67;98688.19;2049459;28;47869;-55
2021/12/28 00:33:09;;;;;;;;;0.33;0.33;;;;;14.00;69.48;98688.19;2085190;28;46887;-55
2021/12/28 00:34:09;;;;;;;;;1.00;1.00;;;;;13.99;69.73;98692.69;2058461;28;48161;-55
2021/12/28 00:35:10;;;;;;;;;1.67;0.33;;;;;13.99;69.71;98690.00;2097581;27;48252;-52
2021/12/28 00:36:10;;;;;;;;;0.00;0.00;;;;;13.99;69.62;98687.34;2081466;27;47049;-56
2021/12/28 00:37:11;;;;;;;;;0.00;0.00;;;;;13.99;69.68;98678.50;2052619;28;48367;-55
2021/12/28 00:38:16;;;;;;;;;1.00;1.00;;;;;13.98;69.76;98674.97;2062139;28;48019;-56
2021/12/28 00:39:17;;;;;;;;;2.50;1.00;;;;;13.99;69.76;98678.50;2076055;28;48089;-56
2021/12/28 00:40:18;;;;;;;;;0.00;0.00;;;;;13.98;70.03;98672.31;2097014;27;48108;-56
2021/12/28 00:41:18;;;;;;;;;2.00;0.67;;;;;13.99;70.16;98673.16;2076717;28;47207;-54
2021/12/28 00:42:19;;;;;;;;;1.00;0.00;;;;;14.00;69.77;98677.53;2067087;28;46769;-55
2021/12/28 00:43:20;;;;;;;;;1.67;1.00;;;;;13.99;69.96;98679.34;2085783;27;48106;-56
2021/12/28 00:44:20;;;;;;;;;1.75;0.25;;;;;13.98;70.02;98674.97;2085423;28;47385;-56
2021/12/28 00:45:21;;;;;;;;;1.00;1.00;;;;;13.97;69.81;98672.38;2093551;27;47204;-56
2021/12/28 00:46:22;;;;;;;;;0.75;0.75;;;;;13.97;70.06;98667.91;2077548;27;47193;-54
2021/12/28 00:47:22;;;;;;;;;0.00;0.00;;;;;13.99;69.88;98681.16;2060141;28;48045;-54
2021/12/28 00:48:23;;;;;;;;;1.00;1.00;;;;;13.99;69.89;98678.50;2055192;28;47183;-55
2021/12/28 00:49:24;;;;;;;;;1.00;1.00;;;;;14.00;70.04;98672.19;2094106;28;47818;-55
2021/12/28 00:50:27;;;;;;;;;2.00;1.00;;;;;13.98;69.78;98672.31;2092150;27;48453;-57
2021/12/28 00:51:27;;;;;;;;;1.75;0.75;;;;;13.98;70.14;98672.31;2073991;27;47695;-55
2021/12/28 00:52:27;;;;;;;;;1.00;1.00;;;;;13.98;70.10;98674.97;2066338;28;46800;-55
2021/12/28 00:53:28;;;;;;;;;3.00;1.00;;;;;13.99;69.77;98678.50;2059805;28;48077;-56
2021/12/28 00:54:28;;;;;;;;;2.00;2.00;;;;;13.99;69.88;98679.34;2097170;28;48051;-54
2021/12/28 00:55:29;;;;;;;;;0.67;0.67;;;;;14.00;69.85;98674.88;2087136;28;47392;-54
2021/12/28 00:56:30;;;;;;;;;1.00;1.00;;;;;14.00;70.25;98674.88;2072160;27;46423;-56
2021/12/28 00:57:30;;;;;;;;;1.00;1.00;;;;;14.00;69.91;98680.19;2072709;28;47344;-55
2021/12/28 00:58:32;;;;;;;;;1.00;1.00;;;;;13.99;69.85;98679.34;2068661;28;47173;-53
2021/12/28 00:59:32;;;;;;;;;0.75;0.75;;;;;14.00;69.96;98688.19;2097674;27;48112;-53
2021/12/28 01:00:38;;;;;;;;;0.00;0.00;;;;;13.98;69.73;98685.63;2092206;27;47151;-56
2021/12/28 01:01:38;;;;;;;;;0.75;0.75;;;;;13.97;70.11;98683.06;2065563;28;47671;-53
2021/12/28 01:02:39;;;;;;;;;0.67;0.67;;;;;13.96;70.17;98684.88;2055066;28;48552;-55
2021/12/28 01:03:40;;;;;;;;;1.00;1.00;;;;;13.95;70.21;98685.81;2057216;28;47260;-56
2021/12/28 01:04:40;;;;;;;;;2.00;2.00;;;;;13.95;70.06;98682.31;2057489;28;48304;-55
2021/12/28 01:05:41;;;;;;;;;0.67;0.67;;;;;13.94;70.17;98692.13;2097442;27;47377;-55
2021/12/28 01:06:41;;;;;;;;;2.33;1.33;;;;;13.94;70.14;98675.25;2073450;27;47429;-55
2021/12/28 01:07:42;;;;;;;;;1.00;1.00;;;;;13.94;70.01;98680.59;2049483;28;47407;-54
2021/12/28 01:08:42;;;;;;;;;1.67;1.67;;;;;13.93;70.28;98682.41;2056038;28;47204;-57
2021/12/28 01:09:44;;;;;;;;;1.00;1.00;;;;;13.93;70.02;98687.75;2055732;28;46940;-55
2021/12/28 01:10:51;;;;;;;;;1.75;1.75;;;;;13.93;70.24;98682.41;2068952;27;48025;-56
2021/12/28 01:11:52;;;;;;;;;1.00;1.00;;;;;13.93;70.24;98684.22;2059791;28;48103;-57
2021/12/28 01:12:55;;;;;;;;;1.00;1.00;;;;;13.92;70.35;98686.03;2055636;28;47209;-55
2021/12/28 01:13:55;;;;;;;;;1.00;1.00;;;;;13.94;70.35;98680.59;2058855;28;47096;-54
2021/12/28 01:14:56;;;;;;;;;2.33;1.00;;;;;13.93;70.41;98693.06;2071271;28;47159;-54
2021/12/28 01:15:56;;;;;;;;;1.00;1.00;;;;;13.92;70.48;98690.53;2096361;27;48211;-54
2021/12/28 01:16:59;;;;;;;;;1.00;1.00;;;;;13.92;70.37;98688.72;2054791;28;48061;-54
2021/12/28 01:17:59;;;;;;;;;1.00;1.00;;;;;13.93;70.42;98697.56;2058413;28;48215;-54
2021/12/28 01:19:00;;;;;;;;;2.00;2.00;;;;;13.93;70.43;98689.56;2057297;27;46977;-55
2021/12/28 01:20:01;;;;;;;;;2.33;2.00;;;;;13.93;70.36;98689.56;2081467;28;47922;-53
2021/12/28 01:21:01;;;;;;;;;2.00;2.00;;;;;13.92;70.27;98694.03;2091150;27;48152;-57
2021/12/28 01:22:02;;;;;;;;;1.00;1.00;;;;;13.93;70.55;98697.56;2054794;28;46978;-55
2021/12/28 01:23:04;;;;;;;;;1.25;1.25;;;;;13.93;70.43;98693.06;2063873;28;47853;-57
2021/12/28 01:24:05;;;;;;;;;0.00;0.00;;;;;13.94;70.58;98685.94;2045844;28;48191;-55
2021/12/28 01:25:07;;;;;;;;;1.00;1.00;;;;;13.94;70.38;98691.25;2081284;28;48328;-56
2021/12/28 01:26:07;;;;;;;;;2.50;2.50;;;;;13.94;70.52;98694.78;2052018;28;48422;-53
2021/12/28 01:27:08;;;;;;;;;1.67;1.67;;;;;13.94;70.54;98681.44;2054690;28;48329;-54
2021/12/28 01:28:10;;;;;;;;;0.00;0.00;;;;;13.95;70.58;98690.31;2077494;28;47197;-53
2021/12/28 01:29:10;;;;;;;;;0.50;0.50;;;;;13.95;70.61;98698.31;2057815;28;47804;-56
2021/12/28 01:30:13;;;;;;;;;1.00;1.00;;;;;13.94;70.85;98694.78;2096980;27;46294;-55
2021/12/28 01:31:13;;;;;;;;;1.00;0.75;;;;;13.94;70.54;98685.94;2066769;27;46432;-54
2021/12/28 01:32:14;;;;;;;;;1.00;0.00;;;;;13.94;70.81;98688.59;2054877;28;48163;-57
2021/12/28 01:33:14;;;;;;;;;0.00;0.00;;;;;13.94;70.86;98694.78;2085156;28;48042;-53
2021/12/28 01:34:15;;;;;;;;;0.00;0.00;;;;;13.95;70.83;98684.97;2066965;28;47976;-53
2021/12/28 01:35:17;;;;;;;;;0.00;0.00;;;;;13.95;71.11;98684.97;2096581;28;48481;-52
2021/12/28 01:36:17;;;;;;;;;0.00;0.00;;;;;13.96;71.00;98687.53;2075341;27;47617;-54
2021/12/28 01:37:18;;;;;;;;;0.00;0.00;;;;;13.96;70.82;98687.53;2059556;27;48198;-55
2021/12/28 01:38:19;;;;;;;;;1.00;1.00;;;;;13.97;70.67;98688.38;2055371;27;47717;-54
2021/12/28 01:39:19;;;;;;;;;0.00;0.00;;;;;13.98;70.80;98695.44;2074171;28;48063;-55
2021/12/28 01:40:27;;;;;;;;;0.00;0.00;;;;;13.99;70.99;98689.16;2095474;27;48076;-56
2021/12/28 01:41:27;;;;;;;;;0.75;0.75;;;;;13.99;70.96;98682.00;2074249;27;47420;-55
2021/12/28 01:42:28;;;;;;;;;0.00;0.00;;;;;13.99;70.80;98694.50;2069025;28;47061;-55
2021/12/28 01:43:29;;;;;;;;;0.00;0.00;;;;;13.99;70.61;98682.00;2079326;27;47441;-53
2021/12/28 01:44:30;;;;;;;;;0.00;0.00;;;;;13.99;70.64;98692.69;2089760;28;47183;-52
2021/12/28 01:45:49;;;;;;;;;0.00;0.00;;;;;14.00;70.63;98694.38;2091968;27;46938;-56
2021/12/28 01:46:49;;;;;;;;;0.00;0.00;;;;;14.00;70.98;98685.53;2059116;27;47380;-56
2021/12/28 01:47:50;;;;;;;;;0.00;0.00;;;;;14.01;70.72;98698.75;2058521;28;47432;-54
2021/12/28 01:48:50;;;;;;;;;0.00;0.00;;;;;14.02;71.03;98702.28;2068454;28;47524;-52
2021/12/28 01:49:51;;;;;;;;;0.00;0.00;;;;;14.02;70.68;98705.81;2096952;27;47125;-53
2021/12/28 01:50:55;;;;;;;;;0.00;0.00;;;;;14.03;70.60;98701.31;2091792;27;48320;-56
2021/12/28 01:51:56;;;;;;;;;0.00;0.00;;;;;14.03;70.79;98696.84;2061280;27;45519;-56
2021/12/28 01:52:57;;;;;;;;;0.00;0.00;;;;;14.04;70.72;98705.69;2056309;27;48169;-55
2021/12/28 01:53:58;;;;;;;;;0.00;0.00;;;;;14.04;70.86;98700.34;2079301;28;47125;-55
2021/12/28 01:54:59;;;;;;;;;0.00;0.00;;;;;14.05;70.40;98708.25;2064364;27;48264;-54
2021/12/28 01:56:04;;;;;;;;;0.00;0.00;;;;;14.05;70.58;98710.91;2093669;28;47377;-56
2021/12/28 01:57:05;;;;;;;;;0.00;0.00;;;;;14.07;70.71;98708.13;2070490;28;47535;-52
2021/12/28 01:58:06;;;;;;;;;0.00;0.00;;;;;14.07;70.55;98719.66;2054652;28;47026;-55
2021/12/28 01:59:09;;;;;;;;;0.00;0.00;;;;;14.08;70.80;98715.19;2091772;28;47236;-54
2021/12/28 02:00:11;;;;;;;;;0.00;0.00;;;;;14.08;70.58;98721.38;2092320;27;48778;-55
2021/12/28 02:01:12;;;;;;;;;0.00;0.00;;;;;14.10;70.75;98729.25;2085647;27;47680;-54
2021/12/28 02:02:12;;;;;;;;;0.00;0.00;;;;;14.11;70.71;98733.66;2054498;28;47887;-55
2021/12/28 02:03:15;;;;;;;;;0.00;0.00;;;;;14.11;70.60;98728.34;2060826;28;47225;-54
2021/12/28 02:04:21;;;;;;;;;0.00;0.00;;;;;14.12;70.92;98733.56;2096985;27;47513;-56
2021/12/28 02:05:23;;;;;;;;;0.00;0.00;;;;;14.13;70.89;98735.28;2092487;27;47382;-55
2021/12/28 02:06:25;;;;;;;;;0.00;0.00;;;;;14.14;70.93;98746.78;2080249;27;47080;-55
2021/12/28 02:07:25;;;;;;;;;0.00;0.00;;;;;14.14;70.58;98741.47;2056228;27;48458;-55
2021/12/28 02:08:26;;;;;;;;;0.00;0.00;;;;;14.16;70.85;98739.53;2056479;28;47490;-54
2021/12/28 02:09:26;;;;;;;;;0.00;0.00;;;;;14.18;70.47;98755.44;2054870;28;47104;-55
2021/12/28 02:10:27;;;;;;;;;0.00;0.00;;;;;14.17;70.32;98754.56;2086778;28;48607;-54
2021/12/28 02:11:27;;;;;;;;;0.00;0.00;;;;;14.19;70.81;98763.31;2079807;27;47245;-54
2021/12/28 02:12:29;;;;;;;;;0.00;0.00;;;;;14.20;70.49;98769.53;2054522;27;47878;-53
2021/12/28 02:13:29;;;;;;;;;0.00;0.00;;;;;14.20;70.46;98762.38;2061396;28;47306;-54
2021/12/28 02:14:30;;;;;;;;;0.00;0.00;;;;;14.20;70.38;98770.38;2055357;28;48191;-55
2021/12/28 02:15:31;;;;;;;;;0.00;0.00;;;;;14.21;70.63;98761.41;2095579;27;47247;-56
2021/12/28 02:16:33;;;;;;;;;0.00;0.00;;;;;14.22;70.66;98767.59;2073350;27;47206;-54
2021/12/28 02:17:35;;;;;;;;;0.00;0.00;;;;;14.22;70.54;98773.78;2054516;28;47004;-55
2021/12/28 02:18:36;;;;;;;;;0.00;0.00;;;;;14.23;70.17;98774.63;2068024;27;47361;-55
2021/12/28 02:19:36;;;;;;;;;0.00;0.00;;;;;14.23;70.50;98775.53;2065041;28;45397;-54
2021/12/28 02:20:37;;;;;;;;;0.00;0.00;;;;;14.23;70.41;98783.53;2097095;27;48110;-55
2021/12/28 02:21:38;;;;;;;;;0.00;0.00;;;;;14.23;70.02;98788.88;2063829;27;47792;-55
2021/12/28 02:22:40;;;;;;;;;0.25;0.25;;;;;14.23;70.38;98779.97;2057394;28;45957;-56
2021/12/28 02:23:41;;;;;;;;;0.25;0.00;;;;;14.23;70.12;98771.97;2071062;27;47040;-56
2021/12/28 02:24:42;;;;;;;;;0.33;0.00;;;;;14.25;70.02;98783.41;2055980;27;46909;-56
2021/12/28 02:25:43;;;;;;;;;1.00;0.00;;;;;14.25;70.23;98791.44;2052261;28;48156;-54
2021/12/28 02:26:44;;;;;;;;;0.00;0.00;;;;;14.25;70.08;98786.94;2059259;28;47198;-55
2021/12/28 02:27:45;;;;;;;;;0.00;0.00;;;;;14.25;69.63;98792.28;2066723;28;47448;-55
2021/12/28 02:28:45;;;;;;;;;0.00;0.00;;;;;14.25;70.02;98786.94;2067634;27;47074;-54
2021/12/28 02:29:46;;;;;;;;;0.00;0.00;;;;;14.27;69.73;98794.84;2086526;28;47079;-54
2021/12/28 02:30:49;;;;;;;;;0.00;0.00;;;;;14.27;70.27;98797.50;2087001;27;48120;-53
2021/12/28 02:31:55;;;;;;;;;0.00;0.00;;;;;14.29;70.16;98795.59;2058729;27;46904;-54
2021/12/28 02:32:56;;;;;;;;;0.00;0.00;;;;;14.28;69.39;98797.41;2083183;28;47242;-54
2021/12/28 02:33:57;;;;;;;;;0.00;0.00;;;;;14.28;70.02;98799.22;2061825;27;48071;-54
2021/12/28 02:34:58;;;;;;;;;0.00;0.00;;;;;14.28;69.76;98805.41;2096993;27;46210;-55
2021/12/28 02:36:02;;;;;;;;;0.00;0.00;;;;;14.28;69.88;98791.22;2089719;27;47245;-55
2021/12/28 02:37:02;;;;;;;;;0.00;0.00;;;;;14.28;69.78;98796.53;2051659;28;45347;-55
2021/12/28 02:38:07;;;;;;;;;0.00;0.00;;;;;14.28;69.59;98800.06;2056979;28;46907;-54
2021/12/28 02:39:07;;;;;;;;;0.00;0.00;;;;;14.28;69.70;98799.22;2068806;28;47062;-55
2021/12/28 02:40:11;;;;;;;;;0.00;0.00;;;;;14.28;69.60;98805.41;2096765;27;48049;-55
2021/12/28 02:41:13;;;;;;;;;0.00;0.00;;;;;14.28;69.34;98820.56;2080669;28;47512;-54
2021/12/28 02:42:17;;;;;;;;;0.00;0.00;;;;;14.27;69.26;98816.19;2054580;28;46337;-55
2021/12/28 02:43:18;;;;;;;;;0.00;0.00;;;;;14.27;69.71;98824.19;2054396;28;48304;-55
2021/12/28 02:44:19;;;;;;;;;0.00;0.00;;;;;14.27;69.31;98833.03;2086730;27;46337;-55
2021/12/28 02:45:31;;;;;;;;;0.33;0.33;;;;;14.27;69.36;98838.38;2092013;27;46750;-54
2021/12/28 02:46:31;;;;;;;;;0.00;0.00;;;;;14.26;69.22;98835.81;2071676;27;46864;-55
2021/12/28 02:47:32;;;;;;;;;0.00;0.00;;;;;14.25;69.37;98848.31;2064295;27;47310;-55
2021/12/28 02:48:34;;;;;;;;;0.00;0.00;;;;;14.25;69.59;98848.31;2060680;28;47125;-56
2021/12/28 02:49:37;;;;;;;;;1.00;0.00;;;;;14.25;69.33;98852.78;2096761;27;46878;-54
2021/12/28 02:50:42;;;;;;;;;0.00;0.00;;;;;14.25;69.73;98850.13;2092113;27;48191;-54
2021/12/28 02:51:42;;;;;;;;;0.00;0.00;;;;;14.25;69.20;98852.78;2068340;28;47011;-53
2021/12/28 02:52:43;;;;;;;;;0.00;0.00;;;;;14.26;69.34;98854.50;2066654;27;47081;-54
2021/12/28 02:53:46;;;;;;;;;0.00;0.00;;;;;14.26;69.20;98857.16;2075510;28;47742;-54
2021/12/28 02:54:47;;;;;;;;;0.00;0.00;;;;;14.25;69.53;98856.31;2074122;28;47583;-54
2021/12/28 02:55:49;;;;;;;;;0.00;0.00;;;;;14.27;69.27;98861.53;2094746;28;48101;-55
2021/12/28 02:56:49;;;;;;;;;0.00;0.00;;;;;14.27;69.19;98861.53;2060776;27;47995;-54
2021/12/28 02:57:56;;;;;;;;;0.00;0.00;;;;;14.28;69.09;98868.59;2053556;28;47873;-54
2021/12/28 02:59:00;;;;;;;;;1.00;1.00;;;;;14.28;69.36;98881.94;2091972;28;47330;-55
2021/12/28 03:00:00;;;;;;;;;0.75;0.75;;;;;14.28;69.59;98874.78;2092206;27;47510;-54
2021/12/28 03:01:22;;;;;;;;;0.00;0.00;;;;;14.28;69.46;98872.09;2073012;27;48220;-56
2021/12/28 03:02:23;;;;;;;;;1.00;1.00;;;;;14.29;69.21;98884.50;2046156;28;46371;-55
2021/12/28 03:03:26;;;;;;;;;0.00;0.00;;;;;14.28;69.42;98882.78;2056135;28;46856;-54
2021/12/28 03:04:27;;;;;;;;;0.00;0.00;;;;;14.28;69.18;98885.44;2054264;28;48053;-54
2021/12/28 03:05:27;;;;;;;;;0.25;0.25;;;;;14.28;69.37;98882.78;2092192;28;47223;-54
2021/12/28 03:06:28;;;;;;;;;0.00;0.00;;;;;14.29;69.37;98886.31;2074613;27;47354;-53
2021/12/28 03:07:30;;;;;;;;;0.00;0.00;;;;;14.28;69.03;98890.78;2053903;28;47621;-54
2021/12/28 03:08:33;;;;;;;;;0.25;0.25;;;;;14.29;69.63;98887.16;2060027;28;48481;-55
2021/12/28 03:09:33;;;;;;;;;0.25;0.25;;;;;14.28;69.38;98885.44;2053730;28;47126;-53
2021/12/28 03:10:35;;;;;;;;;0.00;0.00;;;;;14.30;69.05;98888.00;2089063;28;47231;-52
2021/12/28 03:11:36;;;;;;;;;0.00;0.00;;;;;14.31;69.38;98893.25;2075396;27;48707;-53
2021/12/28 03:12:36;;;;;;;;;0.00;0.00;;;;;14.31;69.44;98892.38;2053477;28;48555;-52
2021/12/28 03:13:41;;;;;;;;;0.00;0.00;;;;;14.32;69.17;98897.63;2060033;28;47177;-55
2021/12/28 03:14:42;;;;;;;;;0.00;0.00;;;;;14.33;69.16;98904.66;2061178;28;47796;-57
2021/12/28 03:15:42;;;;;;;;;0.67;0.67;;;;;14.33;68.94;98904.66;2096681;28;47236;-54
2021/12/28 03:16:42;;;;;;;;;0.00;0.00;;;;;14.33;69.28;98894.00;2065006;27;46847;-52
2021/12/28 03:17:43;;;;;;;;;0.00;0.00;;;;;14.33;69.11;98898.47;2054195;28;48285;-55
2021/12/28 03:18:44;;;;;;;;;0.00;0.00;;;;;14.34;68.92;98900.19;2047205;28;49216;-55
2021/12/28 03:19:44;;;;;;;;;0.00;0.00;;;;;14.34;69.10;98897.50;2055395;28;48194;-54
2021/12/28 03:20:46;;;;;;;;;0.00;0.00;;;;;14.33;68.90;98899.31;2087755;28;47132;-52
2021/12/28 03:21:47;;;;;;;;;0.00;0.00;;;;;14.33;69.10;98896.66;2060069;27;48282;-55
2021/12/28 03:22:47;;;;;;;;;0.00;0.00;;;;;14.34;68.81;98900.19;2060782;28;48485;-56
2021/12/28 03:23:50;;;;;;;;;0.00;0.00;;;;;14.34;69.15;98900.19;2066118;27;47002;-55
2021/12/28 03:24:50;;;;;;;;;0.00;0.00;;;;;14.34;68.98;98902.84;2078291;28;46134;-54
2021/12/28 03:25:51;;;;;;;;;0.00;0.00;;;;;14.33;68.73;98899.31;2053188;27;47250;-56
2021/12/28 03:26:53;;;;;;;;;0.00;0.00;;;;;14.33;69.12;98894.00;2057059;28;48407;-54
2021/12/28 03:27:53;;;;;;;;;0.00;0.00;;;;;14.33;68.82;98890.47;2072043;28;47437;-54
2021/12/28 03:28:54;;;;;;;;;0.67;0.67;;;;;14.34;69.00;98901.03;2061684;27;47517;-55
2021/12/28 03:29:54;;;;;;;;;0.00;0.00;;;;;14.35;68.80;98896.56;2089243;28;48264;-56
2021/12/28 03:30:57;;;;;;;;;0.00;0.00;;;;;14.35;69.00;98897.41;2092067;27;48320;-55
2021/12/28 03:31:58;;;;;;;;;0.00;0.00;;;;;14.36;68.52;98906.31;2054297;28;45467;-55
2021/12/28 03:32:58;;;;;;;;;0.00;0.00;;;;;14.37;69.02;98902.69;2082921;28;47949;-54
2021/12/28 03:33:59;;;;;;;;;0.00;0.00;;;;;14.37;68.77;98902.69;2063176;27;48181;-55
2021/12/28 03:35:03;;;;;;;;;0.00;0.00;;;;;14.37;68.50;98910.69;2098122;27;47368;-55
2021/12/28 03:36:05;;;;;;;;;0.00;0.00;;;;;14.36;68.63;98907.16;2076208;27;47263;-54
2021/12/28 03:37:05;;;;;;;;;0.25;0.00;;;;;14.36;68.63;98908.97;2054692;28;47744;-54
2021/12/28 03:38:06;;;;;;;;;0.00;0.00;;;;;14.35;68.89;98909.91;2065407;28;47220;-55
2021/12/28 03:39:07;;;;;;;;;0.00;0.00;;;;;14.35;68.70;98907.22;2068743;28;47590;-54
2021/12/28 03:40:11;;;;;;;;;0.00;0.00;;;;;14.36;68.92;98911.63;2097687;27;48299;-55
2021/12/28 03:41:13;;;;;;;;;1.00;0.00;;;;;14.36;68.65;98903.63;2082376;27;48334;-54
2021/12/28 03:42:13;;;;;;;;;0.50;0.50;;;;;14.36;68.95;98914.31;2054299;28;46243;-54
2021/12/28 03:43:14;;;;;;;;;0.00;0.00;;;;;14.37;68.73;98913.34;2055344;28;47029;-55
2021/12/28 03:44:15;;;;;;;;;0.00;0.00;;;;;14.36;68.70;98911.63;2083274;28;47462;-54
2021/12/28 03:45:15;;;;;;;;;0.00;0.00;;;;;14.36;68.88;98912.50;2073903;27;47644;-54
2021/12/28 03:46:17;;;;;;;;;0.00;0.00;;;;;14.37;68.68;98914.19;2084090;27;47870;-55
2021/12/28 03:47:17;;;;;;;;;0.00;0.00;;;;;14.37;68.96;98911.53;2063896;28;47258;-52
2021/12/28 03:48:18;;;;;;;;;0.00;0.00;;;;;14.37;68.84;98914.19;2052827;28;47658;-52
2021/12/28 03:49:19;;;;;;;;;0.00;0.00;;;;;14.39;68.65;98919.44;2073893;28;48060;-56
2021/12/28 03:50:19;;;;;;;;;0.00;0.00;;;;;14.39;68.75;98922.97;2066904;28;46989;-54
2021/12/28 03:51:20;;;;;;;;;0.00;0.00;;;;;14.38;68.93;98918.59;2081837;27;48048;-54
2021/12/28 03:52:20;;;;;;;;;1.00;1.00;;;;;14.39;68.86;98917.63;2069108;28;48025;-54
2021/12/28 03:53:21;;;;;;;;;0.00;0.00;;;;;14.39;68.68;98914.94;2057878;28;47117;-54
2021/12/28 03:54:21;;;;;;;;;0.67;0.67;;;;;14.39;68.82;98925.63;2097579;27;46233;-54
2021/12/28 03:55:23;;;;;;;;;0.00;0.00;;;;;14.39;68.50;98928.28;2095093;27;47347;-54
2021/12/28 03:56:24;;;;;;;;;0.00;0.00;;;;;14.40;68.31;98926.47;2078454;27;48288;-51
2021/12/28 03:57:25;;;;;;;;;0.25;0.25;;;;;14.39;68.42;98928.28;2075651;28;47834;-55
2021/12/28 03:58:25;;;;;;;;;0.00;0.00;;;;;14.40;68.41;98934.50;2066270;28;47390;-53
2021/12/28 03:59:25;;;;;;;;;0.33;0.33;;;;;14.39;68.46;98933.63;2073834;27;47109;-54
2021/12/28 04:00:29;;;;;;;;;0.00;0.00;;;;;14.40;68.70;98934.50;2050624;28;47211;-56
2021/12/28 04:01:29;;;;;;;;;0.00;0.00;;;;;14.40;68.43;98931.81;2055742;27;48111;-56
2021/12/28 04:02:30;;;;;;;;;0.00;0.00;;;;;14.38;68.50;98921.25;2055190;28;48031;-55
2021/12/28 04:03:31;;;;;;;;;0.00;0.00;;;;;14.39;68.53;98925.63;2052003;28;48342;-56
2021/12/28 04:04:31;;;;;;;;;0.00;0.00;;;;;14.40;68.93;98921.16;2047177;28;47942;-54
2021/12/28 04:05:32;;;;;;;;;0.00;0.00;;;;;14.40;68.68;98931.81;2093998;28;47136;-55
2021/12/28 04:06:33;;;;;;;;;0.00;0.00;;;;;14.41;68.43;98933.53;2082468;27;47375;-53
2021/12/28 04:07:34;;;;;;;;;0.00;0.00;;;;;14.40;68.53;98935.34;2055020;28;47425;-57
2021/12/28 04:08:36;;;;;;;;;0.00;0.00;;;;;14.41;68.55;98939.72;2059906;28;48250;-54
2021/12/28 04:09:58;;;;;;;;;0.00;0.00;;;;;14.42;68.73;98938.75;2054756;28;46476;-55
2021/12/28 04:11:13;;;;;;;;;0.00;0.00;;;;;14.43;68.47;98939.63;2097100;27;47756;-55
2021/12/28 04:12:14;;;;;;;;;0.25;0.00;;;;;14.42;68.71;98941.44;2061074;28;45377;-55
2021/12/28 04:13:15;;;;;;;;;0.00;0.00;;;;;14.43;68.48;98935.13;2059194;28;48350;-54
2021/12/28 04:14:16;;;;;;;;;0.00;0.00;;;;;14.44;68.44;98930.69;2055138;28;47325;-55
2021/12/28 04:15:16;;;;;;;;;0.00;0.00;;;;;14.45;68.40;98937.72;2085896;28;47310;-55
2021/12/28 04:16:18;;;;;;;;;0.00;0.00;;;;;14.45;68.63;98935.06;2084325;27;46326;-55
2021/12/28 04:17:18;;;;;;;;;0.25;0.00;;;;;14.45;68.76;98932.41;2055139;28;48400;-54
2021/12/28 04:18:19;;;;;;;;;0.00;0.00;;;;;14.47;68.61;98934.97;2067236;28;48514;-54
2021/12/28 04:19:20;;;;;;;;;0.25;0.25;;;;;14.47;68.29;98937.63;2055736;28;48052;-55
2021/12/28 04:20:22;;;;;;;;;0.00;0.00;;;;;14.47;68.22;98942.97;2092745;28;47255;-58
2021/12/28 04:21:23;;;;;;;;;2.00;1.00;;;;;14.48;68.48;98934.00;2081635;27;48187;-53
2021/12/28 04:22:23;;;;;;;;;0.00;0.00;;;;;14.48;68.47;98932.19;2054781;28;48326;-53
2021/12/28 04:23:24;;;;;;;;;0.00;0.00;;;;;14.48;68.33;98934.00;2073248;28;47358;-53
2021/12/28 04:24:25;;;;;;;;;0.00;0.00;;;;;14.48;68.62;98940.19;2060440;28;46919;-53
2021/12/28 04:25:25;;;;;;;;;0.00;0.00;;;;;14.49;68.05;98944.59;2074492;27;48172;-53
2021/12/28 04:26:27;;;;;;;;;0.00;0.00;;;;;14.50;68.28;98937.44;2055145;28;47352;-56
2021/12/28 04:27:28;;;;;;;;;0.25;0.00;;;;;14.51;68.43;98937.34;2056220;28;47948;-58
2021/12/28 04:28:28;;;;;;;;;0.00;0.00;;;;;14.50;68.36;98938.31;2052694;28;48067;-55
2021/12/28 04:29:28;;;;;;;;;0.00;0.00;;;;;14.50;68.73;98945.47;2069748;27;45485;-56
2021/12/28 04:30:29;;;;;;;;;2.00;1.00;;;;;14.49;68.19;98941.94;2097529;27;47312;-59
2021/12/28 04:31:29;;;;;;;;;0.00;0.00;;;;;14.51;68.18;98944.50;2065527;27;47242;-57
2021/12/28 04:32:30;;;;;;;;;0.00;0.00;;;;;14.51;68.22;98953.34;2055709;28;47358;-55
2021/12/28 04:33:31;;;;;;;;;0.00;0.00;;;;;14.52;68.08;98956.88;2080336;27;48263;-58
2021/12/28 04:34:31;;;;;;;;;0.00;0.00;;;;;14.52;68.23;98957.75;2073843;28;48337;-55
2021/12/28 04:35:32;;;;;;;;;0.00;0.00;;;;;14.52;68.30;98962.22;2093676;27;47225;-54
2021/12/28 04:36:32;;;;;;;;;0.00;0.00;;;;;14.52;68.09;98962.22;2067728;28;47098;-54
2021/12/28 04:37:33;;;;;;;;;1.00;0.00;;;;;14.52;68.50;98963.06;2057635;28;47748;-55
2021/12/28 04:38:34;;;;;;;;;0.00;0.00;;;;;14.51;67.95;98961.38;2051248;28;47213;-56
2021/12/28 04:39:34;;;;;;;;;0.00;0.00;;;;;14.52;68.27;98956.88;2084466;27;46963;-57
2021/12/28 04:40:35;;;;;;;;;0.00;0.00;;;;;14.51;68.05;98958.69;2076052;27;48157;-57
2021/12/28 04:41:35;;;;;;;;;0.00;0.00;;;;;14.52;68.21;98970.22;2070685;27;47302;-55
2021/12/28 04:42:41;;;;;;;;;0.33;0.33;;;;;14.52;68.01;98960.41;2076015;28;47108;-55
2021/12/28 04:43:41;;;;;;;;;0.50;0.50;;;;;14.53;68.03;98963.94;2071616;27;47353;-54
2021/12/28 04:44:42;;;;;;;;;0.00;0.00;;;;;14.53;68.30;98971.94;2095513;28;47511;-54
2021/12/28 04:45:43;;;;;;;;;0.00;0.00;;;;;14.53;67.90;98970.13;2087757;27;48187;-54
2021/12/28 04:46:43;;;;;;;;;0.33;0.00;;;;;14.54;68.19;98976.31;2065346;27;47899;-53
2021/12/28 04:47:43;;;;;;;;;0.00;0.00;;;;;14.54;68.31;98961.16;2059536;27;47132;-55
2021/12/28 04:48:44;;;;;;;;;0.00;0.00;;;;;14.54;68.36;98963.81;2063508;28;48287;-55
2021/12/28 04:49:46;;;;;;;;;0.00;0.00;;;;;14.55;68.06;98965.53;2097339;27;47317;-54
2021/12/28 04:50:46;;;;;;;;;0.00;0.00;;;;;14.55;68.08;98952.19;2088145;27;47432;-55
2021/12/28 04:51:48;;;;;;;;;1.00;0.00;;;;;14.56;68.32;98950.38;2064076;27;48253;-56
2021/12/28 04:52:49;;;;;;;;;0.00;0.00;;;;;14.56;68.45;98947.72;2064109;27;47351;-55